Aérodrome :
LOGIN :

S'inscrire | Disclaimer

   EN    FR    IT 

 










Légende :    VFR   VFR Marginal   IFR   IFR Intensif   IFR Très Intensif
Visi : 
Plafond : 
>= 8 km
>= 3000ft
5 à 8 km
1000 à 3000 ft
1500m à 5 km
500 à 1000 ft
800 à 1500m
200 à 500 ft
< 800m
< 200 ft
Symboles :   Orages  Brouillard  Fortes neiges  Fortes précipitations  Vent > 20 kt
SIGMETs :   Divers  Orages  Givrage  Turbulence  Onde Orograph.  Cendres Volcan.






- Altitude de l'aérodrome : 1325 ft
- Code IATA : EBU


LFMH - St-Etienne Boutheon

DERNIER METAR :
  • 152030Z AUTO 34009KT 300V010 9999 OVC009 M01/M02 Q1026

METARs EXPIRÉS :
  • 152000Z AUTO 35010KT 320V020 9999 OVC009 M01/M02 Q1025 TEMPO 2000 -SN BKN004
  • 151930Z AUTO 34009KT 290V020 9999 OVC008 M01/M02 Q1025 TEMPO 2000 -SN BKN004
  • 151900Z AUTO 34010KT 310V010 9999 OVC010 M00/M02 Q1025 TEMPO 2000 -SN BKN004
  • 151830Z AUTO 35010KT 300V020 9999 OVC009 M00/M01 Q1025 TEMPO 2000 -SN BKN004
  • 151800Z AUTO 35009KT 320V020 9999 OVC008 M00/M01 Q1024 TEMPO 2000 -SN BKN004

TAF TAF LFMH
Valide du 15 à 18h jusqu'au 16 à 18h UTC


151700Z 1518/1618 34012KT 9999 OVC010
TEMPO 1518/1522 2000 -SN BKN004
PROB30 1522/1603 4000 -SN BKN005
BECMG 1600/1603 VRB03KT OVC005
BECMG 1610/1612 CAVOK
BECMG 1617/1618 2000 -SN BKN010
ATIS : +33 4 77 36 17 51



MET'MAP, la Météo Aéronautique d'un coup d'oeil ! - Copyright ORBIFLY Décembre 2007 - Disclaimer

ORBIFLY MET'MAP TEAM :

Programmation & Développement : Alexandra Zaïnal
Sur une idée originale de : Baudouin d'Aumeries
Assistance à la programmation : Marc-Olivier Méhu
Soutien technique & logistique : Manuel Goepfert

Contact : metmap@orbifly.com




SOURCES & CREDITS :

   NOAA